createdAt,value
2022-07-29T00:01:21.405Z,27.60
2022-07-29T00:03:50.189Z,27.60
2022-07-29T00:06:18.805Z,27.60
2022-07-29T00:08:47.130Z,27.50
2022-07-29T00:11:16.696Z,27.50
2022-07-29T00:13:50.559Z,27.50
2022-07-29T00:16:19.254Z,27.50
2022-07-29T00:18:47.525Z,27.50
2022-07-29T00:21:15.696Z,27.60
2022-07-29T00:23:44.089Z,27.50
2022-07-29T00:26:12.302Z,27.50
2022-07-29T00:28:41.895Z,27.50
2022-07-29T00:31:10.188Z,27.50
2022-07-29T00:33:38.425Z,27.50
2022-07-29T00:36:06.135Z,27.50
2022-07-29T00:38:34.339Z,27.50
2022-07-29T00:41:02.492Z,27.50
2022-07-29T00:43:30.584Z,27.50
2022-07-29T00:46:00.089Z,27.50
2022-07-29T00:48:28.279Z,27.50
2022-07-29T00:50:57.019Z,27.50
2022-07-29T00:53:25.659Z,27.50
2022-07-29T00:55:56.126Z,27.40
2022-07-29T00:58:24.522Z,27.50
2022-07-29T01:00:53.424Z,27.50
2022-07-29T01:03:22.980Z,27.50
2022-07-29T01:05:51.956Z,27.40
2022-07-29T01:08:21.910Z,27.40
2022-07-29T01:10:51.263Z,27.40
2022-07-29T01:13:20.090Z,27.40
2022-07-29T01:15:53.745Z,27.40
2022-07-29T01:18:30.657Z,27.40
2022-07-29T01:21:21.562Z,27.40
2022-07-29T01:24:12.000Z,27.40
2022-07-29T01:26:47.727Z,27.40
2022-07-29T01:29:29.024Z,27.40
2022-07-29T01:32:09.330Z,27.50
2022-07-29T01:35:00.724Z,27.40
2022-07-29T01:37:31.864Z,27.40
2022-07-29T01:40:01.887Z,27.40
2022-07-29T01:42:36.128Z,27.40
2022-07-29T01:45:12.553Z,27.40
2022-07-29T01:47:48.727Z,27.40
2022-07-29T01:50:19.914Z,27.40
2022-07-29T01:52:54.660Z,27.40
2022-07-29T01:55:27.202Z,27.40
2022-07-29T01:57:58.545Z,27.40
2022-07-29T02:00:29.731Z,27.40
2022-07-29T02:02:59.017Z,27.40
2022-07-29T02:05:29.223Z,27.40
2022-07-29T02:07:59.940Z,27.40
2022-07-29T02:10:29.690Z,27.40
2022-07-29T02:13:00.175Z,27.40
2022-07-29T02:15:31.443Z,27.40
2022-07-29T02:18:04.134Z,27.40
2022-07-29T02:20:32.669Z,27.40
2022-07-29T02:23:01.670Z,27.40
2022-07-29T02:25:37.248Z,27.40
2022-07-29T02:28:07.860Z,27.40
2022-07-29T02:30:41.278Z,27.40
2022-07-29T02:33:10.710Z,27.40
2022-07-29T02:35:40.686Z,27.40
2022-07-29T02:38:27.727Z,27.40
2022-07-29T02:40:57.626Z,27.40
2022-07-29T02:43:27.874Z,27.40
2022-07-29T02:45:58.673Z,27.40
2022-07-29T02:48:36.621Z,27.40
2022-07-29T02:51:13.048Z,27.40
2022-07-29T02:54:07.757Z,27.40
2022-07-29T02:56:38.574Z,27.40
2022-07-29T02:59:12.430Z,27.40
2022-07-29T03:01:45.680Z,27.40
2022-07-29T03:04:17.021Z,27.40
2022-07-29T03:06:46.757Z,27.40
2022-07-29T03:09:16.509Z,27.40
2022-07-29T03:11:50.732Z,27.40
2022-07-29T03:14:21.388Z,27.40
2022-07-29T03:16:52.763Z,27.30
2022-07-29T03:19:22.525Z,27.30
2022-07-29T03:21:50.911Z,27.30
2022-07-29T03:24:29.338Z,27.30
2022-07-29T03:26:58.819Z,27.40
2022-07-29T03:29:33.762Z,27.40
2022-07-29T03:32:08.095Z,27.40
2022-07-29T03:34:38.831Z,27.30
2022-07-29T03:37:07.980Z,27.30
2022-07-29T03:39:41.961Z,27.30
2022-07-29T03:42:12.933Z,27.40
2022-07-29T03:44:42.921Z,27.30
2022-07-29T03:47:15.012Z,27.30
2022-07-29T03:49:44.430Z,27.30
2022-07-29T03:52:12.928Z,27.40
2022-07-29T03:54:41.857Z,27.30
2022-07-29T03:57:12.542Z,27.30
2022-07-29T03:59:41.502Z,27.30
2022-07-29T04:02:14.814Z,27.30
2022-07-29T04:04:44.733Z,27.30
2022-07-29T04:07:14.858Z,27.30
2022-07-29T04:09:43.474Z,27.30
2022-07-29T04:12:12.329Z,27.30
2022-07-29T04:14:40.475Z,27.30
2022-07-29T04:17:08.791Z,27.20
2022-07-29T04:19:38.334Z,27.20
2022-07-29T04:22:06.466Z,27.20
2022-07-29T04:24:34.640Z,27.10
2022-07-29T04:27:02.831Z,27.10
2022-07-29T04:29:31.030Z,27.10
2022-07-29T04:31:59.228Z,27.10
2022-07-29T04:34:28.219Z,27.10
2022-07-29T04:36:58.042Z,27.10
2022-07-29T04:39:29.490Z,27.10
2022-07-29T04:41:58.971Z,27.10
2022-07-29T04:44:28.957Z,27.10
2022-07-29T04:46:58.312Z,27.10
2022-07-29T04:49:26.953Z,27.10
2022-07-29T04:51:55.514Z,27.00
2022-07-29T04:54:25.628Z,27.00
2022-07-29T04:56:54.662Z,27.00
2022-07-29T04:59:22.839Z,27.10
2022-07-29T05:01:51.061Z,27.10
2022-07-29T05:04:19.863Z,27.00
2022-07-29T05:06:48.619Z,27.00
2022-07-29T05:09:16.962Z,27.00
2022-07-29T05:11:46.611Z,27.00
2022-07-29T05:14:15.130Z,27.00
2022-07-29T05:16:44.374Z,27.00
2022-07-29T05:19:14.504Z,27.00
2022-07-29T05:21:43.171Z,27.00
2022-07-29T05:24:11.416Z,27.00
2022-07-29T05:26:39.786Z,27.00
2022-07-29T05:29:44.366Z,27.00
2022-07-29T05:31:57.432Z,27.00
2022-07-29T05:34:26.086Z,27.00
2022-07-29T05:36:54.392Z,27.00
2022-07-29T05:39:22.721Z,27.00
2022-07-29T05:42:11.590Z,27.00
2022-07-29T05:44:41.616Z,27.00
2022-07-29T05:47:09.889Z,27.00
2022-07-29T05:49:38.207Z,27.00
2022-07-29T05:52:06.940Z,27.00
2022-07-29T05:54:35.192Z,26.90
2022-07-29T05:57:03.402Z,26.90
2022-07-29T05:59:31.567Z,27.00
2022-07-29T06:02:01.186Z,26.90
2022-07-29T06:04:29.432Z,26.90
2022-07-29T06:06:57.560Z,26.90
2022-07-29T06:09:26.952Z,26.90
2022-07-29T06:11:55.251Z,26.90
2022-07-29T06:14:23.432Z,26.90
2022-07-29T06:16:51.661Z,26.80
2022-07-29T06:19:21.312Z,26.80
2022-07-29T06:21:50.179Z,26.80
2022-07-29T06:24:19.162Z,26.80
2022-07-29T06:26:47.670Z,26.80
2022-07-29T06:29:15.837Z,26.80
2022-07-29T06:31:43.957Z,26.80
2022-07-29T06:34:12.095Z,26.80
2022-07-29T06:36:41.912Z,26.80
2022-07-29T06:39:12.180Z,26.80
2022-07-29T06:41:40.531Z,26.90
2022-07-29T06:44:08.690Z,26.90
2022-07-29T06:46:37.605Z,26.90
2022-07-29T06:49:06.319Z,26.90
2022-07-29T06:51:34.888Z,27.00
2022-07-29T06:54:06.432Z,27.00
2022-07-29T06:56:40.110Z,27.00
2022-07-29T06:59:10.803Z,27.00
2022-07-29T07:01:39.698Z,27.10
2022-07-29T07:04:09.685Z,27.10
2022-07-29T07:06:38.267Z,27.10
2022-07-29T07:09:08.255Z,27.20
2022-07-29T07:11:36.517Z,27.20
2022-07-29T07:14:04.731Z,27.20
2022-07-29T07:16:33.640Z,27.20
2022-07-29T07:19:02.346Z,27.30
2022-07-29T07:21:31.233Z,27.20
2022-07-29T07:23:59.884Z,27.30
2022-07-29T07:26:30.098Z,27.30
2022-07-29T07:28:58.812Z,27.30
2022-07-29T07:31:27.120Z,27.30
2022-07-29T07:33:55.375Z,27.30
2022-07-29T07:36:24.181Z,27.30
2022-07-29T07:38:52.340Z,27.40
2022-07-29T07:41:20.512Z,27.40
2022-07-29T07:43:50.071Z,27.40
2022-07-29T07:46:18.309Z,27.40
2022-07-29T07:48:46.600Z,27.40
2022-07-29T07:51:15.195Z,27.40
2022-07-29T07:53:43.385Z,27.40
2022-07-29T07:56:12.628Z,27.40
2022-07-29T07:58:41.139Z,27.40
2022-07-29T08:01:10.915Z,27.40
2022-07-29T08:03:39.896Z,27.40
2022-07-29T08:06:08.217Z,27.40
2022-07-29T08:08:36.451Z,27.40
2022-07-29T08:11:08.975Z,27.40
2022-07-29T08:13:38.715Z,27.40
2022-07-29T08:16:13.852Z,27.50
2022-07-29T08:18:45.106Z,27.50
2022-07-29T08:21:14.872Z,27.50
2022-07-29T08:23:57.682Z,27.50
2022-07-29T08:26:28.055Z,27.50
2022-07-29T08:28:56.356Z,27.50
2022-07-29T08:31:24.673Z,27.50
2022-07-29T08:33:54.306Z,27.50
2022-07-29T08:36:23.053Z,27.50
2022-07-29T08:38:52.131Z,27.50
2022-07-29T08:41:21.401Z,27.50
2022-07-29T08:43:49.829Z,27.50
2022-07-29T08:46:19.153Z,27.50
2022-07-29T08:48:48.152Z,27.50
2022-07-29T08:51:20.566Z,27.60
2022-07-29T08:53:50.760Z,27.60
2022-07-29T08:56:20.369Z,27.60
2022-07-29T08:58:52.405Z,27.60
2022-07-29T09:01:36.013Z,27.60
2022-07-29T09:04:08.010Z,27.60
2022-07-29T09:06:39.935Z,27.60
2022-07-29T09:09:10.430Z,27.60
2022-07-29T09:11:38.661Z,27.60
2022-07-29T09:14:06.919Z,27.60
2022-07-29T09:17:00.902Z,27.60
2022-07-29T09:19:31.618Z,27.60
2022-07-29T09:22:03.535Z,27.60
2022-07-29T09:24:45.470Z,27.60
2022-07-29T09:27:22.853Z,27.60
2022-07-29T09:29:59.326Z,27.60
2022-07-29T09:32:28.918Z,27.60
2022-07-29T09:35:23.052Z,27.70
2022-07-29T09:37:53.063Z,27.70
2022-07-29T09:40:22.613Z,27.70
2022-07-29T09:42:51.221Z,27.70
2022-07-29T09:45:30.561Z,27.70
2022-07-29T09:48:01.388Z,27.70
2022-07-29T09:50:40.897Z,27.70
2022-07-29T09:53:11.478Z,27.70
2022-07-29T09:55:49.153Z,27.70
2022-07-29T09:58:18.714Z,27.70
2022-07-29T10:00:48.035Z,27.70
2022-07-29T10:03:17.628Z,27.70
2022-07-29T10:05:46.571Z,27.70
2022-07-29T10:08:26.652Z,27.70
2022-07-29T10:11:12.038Z,27.70
2022-07-29T10:13:41.424Z,27.70
2022-07-29T10:16:09.882Z,27.80
2022-07-29T10:18:40.940Z,27.70
2022-07-29T10:21:10.526Z,27.80
2022-07-29T10:23:47.089Z,27.80
2022-07-29T10:26:16.598Z,27.80
2022-07-29T10:28:44.779Z,27.80
2022-07-29T10:31:18.012Z,27.80
2022-07-29T10:33:54.869Z,27.80
2022-07-29T10:36:34.922Z,27.80
2022-07-29T10:39:10.586Z,27.80
2022-07-29T10:42:09.171Z,27.80
2022-07-29T10:44:41.621Z,27.80
2022-07-29T10:47:10.516Z,27.80
2022-07-29T10:49:41.093Z,27.80
2022-07-29T10:52:10.739Z,27.80
2022-07-29T10:54:51.150Z,27.80
2022-07-29T10:57:53.072Z,27.80
2022-07-29T11:00:35.732Z,27.80
2022-07-29T11:03:10.606Z,27.80
2022-07-29T11:05:56.145Z,27.80
2022-07-29T11:08:28.882Z,27.80
2022-07-29T11:11:41.425Z,27.80
2022-07-29T11:14:14.963Z,27.80
2022-07-29T11:17:07.449Z,27.80
2022-07-29T11:19:40.210Z,27.80
2022-07-29T11:22:11.585Z,27.80
2022-07-29T11:24:50.201Z,27.80
2022-07-29T11:27:21.122Z,27.80
2022-07-29T11:29:56.164Z,27.80
2022-07-29T11:32:29.294Z,27.80
2022-07-29T11:35:22.305Z,27.80
2022-07-29T11:38:28.371Z,27.80
2022-07-29T11:41:27.209Z,27.80
2022-07-29T11:43:56.854Z,27.80
2022-07-29T11:46:47.526Z,27.80
2022-07-29T11:49:21.893Z,27.80
2022-07-29T11:51:53.397Z,27.80
2022-07-29T11:54:27.423Z,27.70
2022-07-29T11:56:56.477Z,27.80
2022-07-29T11:59:33.521Z,27.70
2022-07-29T12:04:53.387Z,27.70
2022-07-29T12:07:03.447Z,27.80
2022-07-29T12:07:32.587Z,27.70
2022-07-29T12:10:04.238Z,27.80
2022-07-29T12:12:34.584Z,27.80
2022-07-29T12:15:14.123Z,27.80
2022-07-29T12:17:44.618Z,27.80
2022-07-29T12:20:13.849Z,27.80
2022-07-29T12:22:45.214Z,27.80
2022-07-29T12:25:32.410Z,27.80
2022-07-29T12:28:02.806Z,27.80
2022-07-29T12:30:41.542Z,27.80
2022-07-29T12:33:22.336Z,27.80
2022-07-29T12:36:06.296Z,27.80
2022-07-29T12:38:36.874Z,27.80
2022-07-29T12:41:05.537Z,27.80
2022-07-29T12:43:33.921Z,27.80
2022-07-29T12:46:14.262Z,27.80
2022-07-29T12:48:45.830Z,27.80
2022-07-29T12:51:15.468Z,27.80
2022-07-29T12:53:43.789Z,27.80
2022-07-29T12:56:41.689Z,27.90
2022-07-29T12:59:18.023Z,27.90
2022-07-29T13:01:48.088Z,27.90
2022-07-29T13:04:28.612Z,27.90
2022-07-29T13:07:06.945Z,27.80
2022-07-29T13:09:42.369Z,27.90
2022-07-29T13:12:12.144Z,27.90
2022-07-29T13:14:42.470Z,27.90
2022-07-29T13:17:13.451Z,27.90
2022-07-29T13:19:45.174Z,27.80
2022-07-29T13:22:15.437Z,27.90
2022-07-29T13:24:51.338Z,27.80
2022-07-29T13:27:20.512Z,27.80
2022-07-29T13:29:49.707Z,27.80
2022-07-29T13:32:17.881Z,27.90
2022-07-29T13:34:47.469Z,27.90
2022-07-29T13:37:15.946Z,27.90
2022-07-29T13:39:44.821Z,27.90
2022-07-29T13:42:21.566Z,27.90
2022-07-29T13:44:51.826Z,27.90
2022-07-29T13:47:20.188Z,27.90
2022-07-29T13:49:49.807Z,27.90
2022-07-29T13:52:18.396Z,27.90
2022-07-29T13:54:47.873Z,27.90
2022-07-29T13:57:16.600Z,27.90
2022-07-29T13:59:48.440Z,27.90
2022-07-29T14:02:20.379Z,27.90
2022-07-29T14:04:50.256Z,27.90
2022-07-29T14:07:18.656Z,27.90
2022-07-29T14:09:46.840Z,28.00
2022-07-29T14:12:15.007Z,27.90
2022-07-29T14:14:43.425Z,28.00
2022-07-29T14:17:11.665Z,27.90
2022-07-29T14:19:40.114Z,27.90
2022-07-29T14:22:11.146Z,27.90
2022-07-29T14:24:40.524Z,27.90
2022-07-29T14:27:10.058Z,27.90
2022-07-29T14:29:38.950Z,27.90
2022-07-29T14:32:08.579Z,27.90
2022-07-29T14:34:37.139Z,27.90
2022-07-29T14:37:07.089Z,27.90
2022-07-29T14:39:42.829Z,27.90
2022-07-29T14:42:12.589Z,27.90
2022-07-29T14:44:42.258Z,27.90
2022-07-29T14:47:11.230Z,27.90
2022-07-29T14:49:39.433Z,27.90
2022-07-29T14:52:07.634Z,28.00
2022-07-29T14:54:37.177Z,27.90
